createdAt,value
2023-03-27T00:00:02.427Z,5.3
2023-03-27T00:20:03.065Z,5.2
2023-03-27T00:40:02.449Z,5
2023-03-27T01:00:02.844Z,4.9
2023-03-27T01:20:02.431Z,4.9
2023-03-27T01:40:02.760Z,4.5
2023-03-27T02:00:17.783Z,4.5
2023-03-27T02:20:02.175Z,4.3
2023-03-27T02:40:02.558Z,4
2023-03-27T03:00:02.880Z,3.8
2023-03-27T03:20:02.248Z,3.4
2023-03-27T03:40:02.734Z,3.2
2023-03-27T04:00:03.105Z,3
2023-03-27T04:20:02.405Z,2.7
2023-03-27T04:40:02.784Z,2.5
2023-03-27T05:00:02.103Z,2.4
2023-03-27T05:20:02.043Z,2.3
2023-03-27T05:40:02.379Z,2
2023-03-27T06:00:02.714Z,2.2
2023-03-27T06:20:02.772Z,2.6
2023-03-27T06:40:02.339Z,3
2023-03-27T07:00:02.880Z,3.1
2023-03-27T07:20:02.541Z,3.9
2023-03-27T07:40:02.910Z,4.5
2023-03-27T08:00:03.042Z,5.5
2023-03-27T08:20:02.480Z,5.4
2023-03-27T08:40:02.867Z,5.7
2023-03-27T09:00:02.573Z,6.6
2023-03-27T09:20:02.475Z,7.7
2023-03-27T09:40:02.985Z,8.7
2023-03-27T10:00:02.581Z,8.5
2023-03-27T10:20:02.639Z,9.1
2023-03-27T10:40:03.317Z,9
2023-03-27T11:00:02.837Z,9.4
2023-03-27T11:20:02.704Z,8
2023-03-27T11:40:02.147Z,8.4
2023-03-27T12:00:02.620Z,8.2
2023-03-27T12:20:02.664Z,8
2023-03-27T12:40:03.218Z,8.7
2023-03-27T13:00:02.953Z,9
2023-03-27T13:20:02.983Z,7.9
2023-03-27T13:40:02.744Z,7.1
2023-03-27T14:00:02.133Z,6.9
2023-03-27T14:20:02.401Z,6.7
2023-03-27T14:40:03.143Z,6.8
2023-03-27T15:00:03.659Z,7
2023-03-27T15:20:02.811Z,7
2023-03-27T15:40:02.512Z,6.7
2023-03-27T16:00:03.198Z,6.6
2023-03-27T16:20:02.935Z,6.4
2023-03-27T16:40:02.590Z,6.4
2023-03-27T17:00:03.091Z,5.8
2023-03-27T17:20:03.927Z,5
2023-03-27T17:40:02.708Z,4.6
2023-03-27T18:00:04.092Z,4.5
2023-03-27T18:20:02.431Z,4.4
2023-03-27T18:40:03.096Z,4.3
2023-03-27T19:00:02.492Z,4.1
2023-03-27T19:20:02.444Z,4
2023-03-27T19:40:02.861Z,3.7
2023-03-27T20:00:02.425Z,3.4
2023-03-27T20:20:02.240Z,3
2023-03-27T20:40:02.565Z,3.1
2023-03-27T21:00:02.994Z,3
2023-03-27T21:20:02.713Z,3
2023-03-27T21:40:02.167Z,3
2023-03-27T22:00:02.678Z,2.9
2023-03-27T22:20:02.359Z,2.6
2023-03-27T22:40:02.814Z,2.6
2023-03-27T23:00:02.187Z,2.6
2023-03-27T23:20:03.055Z,2.4
2023-03-27T23:40:02.594Z,2.6
